Time,TemperatureF,DewpointF,PressureIn,WindDirection,WindDirectionDegrees,WindSpeedMPH,WindSpeedGustMPH,Humidity,HourlyPrecipIn,Conditions,Clouds,dailyrainin,SoftwareType,DateUTC
2013-11-17 00:00:00,63.6,57.0,29.39,SSE,158,6.7,6.7,79,0.00,,,0.01,WUHU216HW,2013-11-17 06:00:00,
2013-11-17 00:05:00,63.6,57.0,29.39,SSE,158,6.7,6.7,79,0.00,,,0.01,WUHU216HW,2013-11-17 06:05:00,
2013-11-17 00:30:00,63.6,57.0,29.38,SSW,203,6.7,6.7,79,0.00,,,0.00,WUHU216HW,2013-11-17 06:30:00,
2013-11-17 00:35:00,63.6,57.0,29.38,SSW,203,6.7,6.7,79,0.00,,,0.00,WUHU216HW,2013-11-17 06:35:00,
2013-11-17 00:59:00,63.6,57.0,29.36,SSE,158,9.2,9.2,79,0.00,,,0.00,WUHU216HW,2013-11-17 06:59:00,
2013-11-17 01:00:00,63.6,57.0,29.36,SSE,158,9.2,9.2,79,0.00,,,0.00,WUHU216HW,2013-11-17 07:00:00,
2013-11-17 01:05:00,63.6,57.0,29.36,SSE,158,9.2,9.2,79,0.00,,,0.00,WUHU216HW,2013-11-17 07:05:00,
2013-11-17 01:30:00,63.4,57.2,29.35,SSW,203,13.0,13.0,80,0.00,,,0.00,WUHU216HW,2013-11-17 07:30:00,
2013-11-17 01:35:00,63.4,57.2,29.35,SSW,203,13.0,13.0,80,0.00,,,0.00,WUHU216HW,2013-11-17 07:35:00,
2013-11-17 01:59:00,63.6,57.4,29.34,South,180,5.8,5.8,80,0.00,,,0.00,WUHU216HW,2013-11-17 07:59:00,
2013-11-17 02:00:00,63.6,57.4,29.34,South,180,5.8,5.8,80,0.00,,,0.00,WUHU216HW,2013-11-17 08:00:00,
2013-11-17 02:05:00,63.6,57.4,29.34,South,180,5.8,5.8,80,0.00,,,0.00,WUHU216HW,2013-11-17 08:05:00,
2013-11-17 02:30:00,63.6,57.0,29.34,South,180,10.5,10.5,79,0.00,,,0.00,WUHU216HW,2013-11-17 08:30:00,
2013-11-17 02:35:00,63.6,57.0,29.34,South,180,10.5,10.5,79,0.00,,,0.00,WUHU216HW,2013-11-17 08:35:00,
2013-11-17 02:59:00,63.6,56.7,29.34,South,180,5.6,5.6,78,0.00,,,0.00,WUHU216HW,2013-11-17 08:59:00,
2013-11-17 03:00:00,63.6,56.7,29.34,South,180,5.6,5.6,78,0.00,,,0.00,WUHU216HW,2013-11-17 09:00:00,
2013-11-17 03:05:00,63.6,56.7,29.34,South,180,5.6,5.6,78,0.00,,,0.00,WUHU216HW,2013-11-17 09:05:00,
2013-11-17 03:30:00,63.6,56.0,29.34,SSW,203,8.7,8.7,76,0.00,,,0.00,WUHU216HW,2013-11-17 09:30:00,
2013-11-17 03:35:00,63.6,56.0,29.34,SSW,203,8.7,8.7,76,0.00,,,0.00,WUHU216HW,2013-11-17 09:35:00,
2013-11-17 03:59:00,63.4,56.5,29.33,SW,225,6.9,6.9,78,0.00,,,0.00,WUHU216HW,2013-11-17 09:59:00,
2013-11-17 04:00:00,63.4,56.5,29.33,SW,225,6.9,6.9,78,0.00,,,0.00,WUHU216HW,2013-11-17 10:00:00,
2013-11-17 04:05:00,63.4,56.5,29.33,SW,225,6.9,6.9,78,0.00,,,0.00,WUHU216HW,2013-11-17 10:05:00,
2013-11-17 04:30:00,63.1,56.2,29.32,SSW,203,4.5,4.5,78,0.00,,,0.00,WUHU216HW,2013-11-17 10:30:00,
2013-11-17 04:35:00,63.1,56.2,29.32,SSW,203,4.5,4.5,78,0.00,,,0.00,WUHU216HW,2013-11-17 10:35:00,
2013-11-17 04:59:00,62.9,56.4,29.32,SSE,158,4.7,4.7,79,0.00,,,0.00,WUHU216HW,2013-11-17 10:59:00,
2013-11-17 05:00:00,62.9,56.4,29.32,SSE,158,4.7,4.7,79,0.00,,,0.00,WUHU216HW,2013-11-17 11:00:00,
2013-11-17 05:05:00,62.9,56.4,29.32,SSE,158,4.7,4.7,79,0.00,,,0.00,WUHU216HW,2013-11-17 11:05:00,
2013-11-17 05:30:00,62.3,56.1,29.32,SSW,203,3.6,3.6,80,0.00,,,0.00,WUHU216HW,2013-11-17 11:30:00,
2013-11-17 05:35:00,62.3,56.1,29.32,SSW,203,3.6,3.6,80,0.00,,,0.00,WUHU216HW,2013-11-17 11:35:00,
2013-11-17 05:59:00,61.8,56.0,29.32,South,180,6.0,6.0,81,0.00,,,0.00,WUHU216HW,2013-11-17 11:59:00,
2013-11-17 06:00:00,61.8,56.0,29.32,South,180,6.0,6.0,81,0.00,,,0.00,WUHU216HW,2013-11-17 12:00:00,
2013-11-17 06:05:00,61.8,56.0,29.32,South,180,6.0,6.0,81,0.00,,,0.00,WUHU216HW,2013-11-17 12:05:00,
2013-11-17 06:30:00,61.3,55.1,29.32,SSW,203,5.8,5.8,80,0.00,,,0.00,WUHU216HW,2013-11-17 12:30:00,
2013-11-17 06:35:00,61.3,55.1,29.32,SSW,203,5.8,5.8,80,0.00,,,0.00,WUHU216HW,2013-11-17 12:35:00,
2013-11-17 06:59:00,60.9,53.0,29.36,WSW,248,7.2,7.2,75,0.00,,,0.00,WUHU216HW,2013-11-17 12:59:00,
2013-11-17 07:00:00,60.9,53.0,29.36,WSW,248,7.2,7.2,75,0.00,,,0.00,WUHU216HW,2013-11-17 13:00:00,
2013-11-17 07:05:00,60.9,53.0,29.36,WSW,248,7.2,7.2,75,0.00,,,0.00,WUHU216HW,2013-11-17 13:05:00,
2013-11-17 07:30:00,60.4,46.6,29.38,West,270,11.2,11.2,60,0.00,,,0.00,WUHU216HW,2013-11-17 13:30:00,
2013-11-17 07:35:00,60.4,46.6,29.38,West,270,11.2,11.2,60,0.00,,,0.00,WUHU216HW,2013-11-17 13:35:00,
2013-11-17 07:59:00,58.4,39.3,29.42,WNW,293,7.8,7.8,49,0.00,,,0.00,WUHU216HW,2013-11-17 13:59:00,
2013-11-17 08:00:00,58.4,39.3,29.42,WNW,293,7.8,7.8,49,0.00,,,0.00,WUHU216HW,2013-11-17 14:00:00,
2013-11-17 08:05:00,58.4,39.3,29.42,WNW,293,7.8,7.8,49,0.00,,,0.00,WUHU216HW,2013-11-17 14:05:00,
2013-11-17 08:30:00,53.9,36.7,29.50,NNE,23,6.0,6.0,52,0.00,,,0.00,WUHU216HW,2013-11-17 14:30:00,
2013-11-17 08:35:00,53.9,36.7,29.50,NNE,23,6.0,6.0,52,0.00,,,0.00,WUHU216HW,2013-11-17 14:35:00,
2013-11-17 08:59:00,52.8,35.7,29.53,NW,315,5.1,5.1,52,0.00,,,0.00,WUHU216HW,2013-11-17 14:59:00,
2013-11-17 09:00:00,52.8,35.7,29.53,NW,315,5.1,5.1,52,0.00,,,0.00,WUHU216HW,2013-11-17 15:00:00,
2013-11-17 09:05:00,52.8,35.7,29.53,NW,315,5.1,5.1,52,0.00,,,0.00,WUHU216HW,2013-11-17 15:05:00,
2013-11-17 09:30:00,53.3,34.6,29.56,WNW,293,6.3,6.3,49,0.00,,,0.00,WUHU216HW,2013-11-17 15:30:00,
2013-11-17 09:35:00,53.3,34.6,29.56,WNW,293,6.3,6.3,49,0.00,,,0.00,WUHU216HW,2013-11-17 15:35:00,
2013-11-17 09:59:00,55.7,35.7,29.58,NNW,338,4.7,4.7,47,0.00,,,0.00,WUHU216HW,2013-11-17 15:59:00,
2013-11-17 10:00:00,55.7,35.7,29.58,NNW,338,4.7,4.7,47,0.00,,,0.00,WUHU216HW,2013-11-17 16:00:00,
2013-11-17 10:05:00,55.7,35.7,29.58,NNW,338,4.7,4.7,47,0.00,,,0.00,WUHU216HW,2013-11-17 16:05:00,
2013-11-17 10:30:00,57.3,36.0,29.59,West,270,9.4,9.4,45,0.00,,,0.00,WUHU216HW,2013-11-17 16:30:00,
2013-11-17 10:35:00,57.3,36.0,29.59,West,270,9.4,9.4,45,0.00,,,0.00,WUHU216HW,2013-11-17 16:35:00,
2013-11-17 11:00:00,58.7,38.5,29.60,NW,315,3.6,3.6,47,0.00,,,0.00,WUHU216HW,2013-11-17 17:00:00,
2013-11-17 11:05:00,58.7,38.5,29.60,NW,315,3.6,3.6,47,0.00,,,0.00,WUHU216HW,2013-11-17 17:05:00,
2013-11-17 11:30:00,60.0,37.9,29.61,WNW,293,6.3,6.3,44,0.00,,,0.00,WUHU216HW,2013-11-17 17:30:00,
2013-11-17 11:35:00,60.0,37.9,29.61,WNW,293,6.3,6.3,44,0.00,,,0.00,WUHU216HW,2013-11-17 17:35:00,
2013-11-17 12:00:00,61.1,37.1,29.60,WSW,248,7.4,7.4,41,0.00,,,0.00,WUHU216HW,2013-11-17 18:00:00,
2013-11-17 12:05:00,61.1,37.1,29.60,WSW,248,7.4,7.4,41,0.00,,,0.00,WUHU216HW,2013-11-17 18:05:00,
2013-11-17 12:30:00,62.9,33.9,29.60,WSW,248,13.4,13.4,34,0.00,,,0.00,WUHU216HW,2013-11-17 18:30:00,
2013-11-17 12:35:00,62.9,33.9,29.60,WSW,248,13.4,13.4,34,0.00,,,0.00,WUHU216HW,2013-11-17 18:35:00,
2013-11-17 13:00:00,63.8,26.2,29.60,NW,315,7.2,7.2,24,0.00,,,0.00,WUHU216HW,2013-11-17 19:00:00,
2013-11-17 13:05:00,63.8,26.2,29.60,NW,315,7.2,7.2,24,0.00,,,0.00,WUHU216HW,2013-11-17 19:05:00,
2013-11-17 13:30:00,63.6,25.0,29.63,WSW,248,8.5,8.5,23,0.00,,,0.00,WUHU216HW,2013-11-17 19:30:00,
2013-11-17 13:35:00,63.6,25.0,29.63,WSW,248,8.5,8.5,23,0.00,,,0.00,WUHU216HW,2013-11-17 19:35:00,
2013-11-17 13:59:00,62.9,24.4,29.65,WNW,293,8.5,8.5,23,0.00,,,0.00,WUHU216HW,2013-11-17 19:59:00,
2013-11-17 14:00:00,62.9,24.4,29.65,WNW,293,8.5,8.5,23,0.00,,,0.00,WUHU216HW,2013-11-17 20:00:00,
2013-11-17 14:05:00,62.9,24.4,29.65,WNW,293,8.5,8.5,23,0.00,,,0.00,WUHU216HW,2013-11-17 20:05:00,
2013-11-17 14:30:00,62.2,24.8,29.67,NE,45,6.9,6.9,24,0.00,,,0.00,WUHU216HW,2013-11-17 20:30:00,
2013-11-17 14:35:00,62.2,24.8,29.67,NE,45,6.9,6.9,24,0.00,,,0.00,WUHU216HW,2013-11-17 20:35:00,
2013-11-17 14:59:00,61.8,22.4,29.69,NW,315,5.8,5.8,22,0.00,,,0.00,WUHU216HW,2013-11-17 20:59:00,
2013-11-17 15:00:00,61.8,22.4,29.69,NW,315,5.8,5.8,22,0.00,,,0.00,WUHU216HW,2013-11-17 21:00:00,
2013-11-17 15:05:00,61.8,22.4,29.69,NW,315,5.8,5.8,22,0.00,,,0.00,WUHU216HW,2013-11-17 21:05:00,
2013-11-17 15:30:00,61.3,20.9,29.72,WSW,248,4.0,4.0,21,0.04,,,0.00,WUHU216HW,2013-11-17 21:30:00,
2013-11-17 15:35:00,61.3,20.9,29.72,WSW,248,4.0,4.0,21,0.04,,,0.00,WUHU216HW,2013-11-17 21:35:00,
2013-11-17 15:59:00,60.2,24.1,29.74,West,270,6.7,6.7,25,0.04,,,0.04,WUHU216HW,2013-11-17 21:59:00,
2013-11-17 16:00:00,60.2,24.1,29.74,West,270,6.7,6.7,25,0.04,,,0.04,WUHU216HW,2013-11-17 22:00:00,
2013-11-17 16:05:00,60.2,24.1,29.74,West,270,6.7,6.7,25,0.04,,,0.04,WUHU216HW,2013-11-17 22:05:00,
2013-11-17 16:30:00,58.6,24.5,29.77,West,270,6.0,6.0,27,0.00,,,0.04,WUHU216HW,2013-11-17 22:30:00,
2013-11-17 16:35:00,58.6,24.5,29.77,West,270,6.0,6.0,27,0.00,,,0.04,WUHU216HW,2013-11-17 22:35:00,
2013-11-17 16:59:00,57.1,25.7,29.79,NNW,338,5.4,5.4,30,0.00,,,0.04,WUHU216HW,2013-11-17 22:59:00,
2013-11-17 17:00:00,57.1,25.7,29.79,NNW,338,5.4,5.4,30,0.00,,,0.04,WUHU216HW,2013-11-17 23:00:00,
2013-11-17 17:05:00,57.1,25.7,29.79,NNW,338,5.4,5.4,30,0.00,,,0.04,WUHU216HW,2013-11-17 23:05:00,
2013-11-17 17:30:00,55.5,26.6,29.82,NW,315,5.4,5.4,33,0.00,,,0.04,WUHU216HW,2013-11-17 23:30:00,
2013-11-17 17:35:00,55.5,26.6,29.82,NW,315,5.4,5.4,33,0.00,,,0.04,WUHU216HW,2013-11-17 23:35:00,
2013-11-17 17:59:00,54.4,28.4,29.84,NW,315,2.2,2.2,37,0.00,,,0.04,WUHU216HW,2013-11-17 23:59:00,
2013-11-17 18:00:00,54.4,28.4,29.84,NW,315,2.2,2.2,37,0.00,,,0.04,WUHU216HW,2013-11-18 00:00:00,
2013-11-17 18:05:00,54.4,28.4,29.84,NW,315,2.2,2.2,37,0.00,,,0.04,WUHU216HW,2013-11-18 00:05:00,
2013-11-17 18:30:00,53.3,28.8,29.86,West,270,2.0,2.0,39,0.00,,,0.04,WUHU216HW,2013-11-18 00:30:00,
2013-11-17 18:35:00,53.3,28.8,29.86,West,270,2.0,2.0,39,0.00,,,0.04,WUHU216HW,2013-11-18 00:35:00,
2013-11-17 18:59:00,52.3,29.1,29.88,WSW,248,0.7,0.7,41,0.00,,,0.04,WUHU216HW,2013-11-18 00:59:00,
2013-11-17 19:00:00,52.3,29.1,29.88,WSW,248,0.7,0.7,41,0.00,,,0.04,WUHU216HW,2013-11-18 01:00:00,
2013-11-17 19:05:00,52.3,29.1,29.88,WSW,248,0.7,0.7,41,0.00,,,0.04,WUHU216HW,2013-11-18 01:05:00,
2013-11-17 19:30:00,51.4,29.5,29.90,WSW,248,2.2,2.2,43,0.00,,,0.04,WUHU216HW,2013-11-18 01:30:00,
2013-11-17 19:35:00,51.4,29.5,29.90,WSW,248,2.2,2.2,43,0.00,,,0.04,WUHU216HW,2013-11-18 01:35:00,
2013-11-17 19:59:00,50.3,30.2,29.92,West,270,0.7,0.7,46,0.00,,,0.04,WUHU216HW,2013-11-18 01:59:00,
2013-11-17 20:00:00,50.3,30.2,29.92,West,270,0.7,0.7,46,0.00,,,0.04,WUHU216HW,2013-11-18 02:00:00,
2013-11-17 20:05:00,50.3,30.2,29.92,West,270,0.7,0.7,46,0.00,,,0.04,WUHU216HW,2013-11-18 02:05:00,
2013-11-17 20:30:00,49.9,30.9,29.94,WNW,293,3.8,3.8,48,0.00,,,0.04,WUHU216HW,2013-11-18 02:30:00,
2013-11-17 20:35:00,49.9,30.9,29.94,WNW,293,3.8,3.8,48,0.00,,,0.04,WUHU216HW,2013-11-18 02:35:00,
2013-11-17 20:59:00,48.8,30.4,29.96,North,0,4.7,4.7,49,0.00,,,0.04,WUHU216HW,2013-11-18 02:59:00,
2013-11-17 21:00:00,48.8,30.4,29.96,North,0,4.7,4.7,49,0.00,,,0.04,WUHU216HW,2013-11-18 03:00:00,
2013-11-17 21:05:00,48.8,30.4,29.96,North,0,4.7,4.7,49,0.00,,,0.04,WUHU216HW,2013-11-18 03:05:00,
2013-11-17 21:30:00,47.9,31.1,29.99,NNW,338,1.1,1.1,52,0.00,,,0.04,WUHU216HW,2013-11-18 03:30:00,
2013-11-17 21:35:00,47.9,31.1,29.99,NNW,338,1.1,1.1,52,0.00,,,0.04,WUHU216HW,2013-11-18 03:35:00,
2013-11-17 21:59:00,47.2,31.4,30.01,West,270,4.0,4.0,54,0.00,,,0.04,WUHU216HW,2013-11-18 03:59:00,
2013-11-17 22:00:00,47.2,31.4,30.01,West,270,4.0,4.0,54,0.00,,,0.04,WUHU216HW,2013-11-18 04:00:00,
2013-11-17 22:05:00,47.2,31.4,30.01,West,270,4.0,4.0,54,0.00,,,0.04,WUHU216HW,2013-11-18 04:05:00,
2013-11-17 22:30:00,46.3,31.9,30.02,NW,315,2.7,2.7,57,0.00,,,0.04,WUHU216HW,2013-11-18 04:30:00,
2013-11-17 22:35:00,46.3,31.9,30.02,NW,315,2.7,2.7,57,0.00,,,0.04,WUHU216HW,2013-11-18 04:35:00,
2013-11-17 22:59:00,45.4,32.4,30.04,West,270,4.7,4.7,60,0.00,,,0.04,WUHU216HW,2013-11-18 04:59:00,
2013-11-17 23:00:00,45.4,32.4,30.04,West,270,4.7,4.7,60,0.00,,,0.04,WUHU216HW,2013-11-18 05:00:00,
2013-11-17 23:01:00,45.4,32.4,30.04,West,270,4.7,4.7,60,0.00,,,0.04,WUHU216HW,2013-11-18 05:01:00,
2013-11-17 23:06:00,45.4,32.4,30.04,West,270,4.7,4.7,60,0.00,,,0.04,WUHU216HW,2013-11-18 05:06:00,
2013-11-17 23:30:00,44.7,31.7,30.06,NNW,338,0.4,0.4,60,0.00,,,0.04,WUHU216HW,2013-11-18 05:30:00,
2013-11-17 23:35:00,44.7,31.7,30.06,NNW,338,0.4,0.4,60,0.00,,,0.04,WUHU216HW,2013-11-18 05:35:00,
2013-11-17 23:59:00,43.8,31.3,30.06,NNW,338,1.8,1.8,61,0.00,,,0.04,WUHU216HW,2013-11-18 05:59:00,